sensor_id;sensor_type;location;lat;lon;timestamp;temperature;humidity
19106;DHT22;9685;54.338;18.672;2023-08-12T00:02:11;15.90;1.00
19106;DHT22;9685;54.338;18.672;2023-08-12T00:04:38;15.90;1.00
19106;DHT22;9685;54.338;18.672;2023-08-12T00:07:06;15.80;1.00
19106;DHT22;9685;54.338;18.672;2023-08-12T00:09:33;15.70;1.00
19106;DHT22;9685;54.338;18.672;2023-08-12T00:12:00;15.70;1.00
19106;DHT22;9685;54.338;18.672;2023-08-12T00:14:27;15.70;1.00
19106;DHT22;9685;54.338;18.672;2023-08-12T00:16:54;15.80;1.00
19106;DHT22;9685;54.338;18.672;2023-08-12T00:19:21;15.80;1.00
19106;DHT22;9685;54.338;18.672;2023-08-12T00:21:48;15.80;1.00
19106;DHT22;9685;54.338;18.672;2023-08-12T00:24:17;15.90;1.00
19106;DHT22;9685;54.338;18.672;2023-08-12T00:26:44;15.80;1.00
19106;DHT22;9685;54.338;18.672;2023-08-12T00:29:11;15.80;1.00
19106;DHT22;9685;54.338;18.672;2023-08-12T00:31:38;15.80;1.00
19106;DHT22;9685;54.338;18.672;2023-08-12T00:34:05;15.70;1.00
19106;DHT22;9685;54.338;18.672;2023-08-12T00:36:32;15.70;1.00
19106;DHT22;9685;54.338;18.672;2023-08-12T00:38:59;15.60;1.00
19106;DHT22;9685;54.338;18.672;2023-08-12T00:41:27;15.70;1.00
19106;DHT22;9685;54.338;18.672;2023-08-12T00:43:54;15.60;1.00
19106;DHT22;9685;54.338;18.672;2023-08-12T00:46:21;15.60;1.00
19106;DHT22;9685;54.338;18.672;2023-08-12T00:48:49;15.70;1.00
19106;DHT22;9685;54.338;18.672;2023-08-12T00:51:16;15.70;1.00
19106;DHT22;9685;54.338;18.672;2023-08-12T00:53:43;15.80;1.00
19106;DHT22;9685;54.338;18.672;2023-08-12T00:56:11;15.80;1.00
19106;DHT22;9685;54.338;18.672;2023-08-12T00:58:39;15.80;1.00
19106;DHT22;9685;54.338;18.672;2023-08-12T01:01:07;15.80;1.00
19106;DHT22;9685;54.338;18.672;2023-08-12T01:03:34;15.70;1.00
19106;DHT22;9685;54.338;18.672;2023-08-12T01:06:02;15.70;1.00
19106;DHT22;9685;54.338;18.672;2023-08-12T01:08:31;15.70;1.00
19106;DHT22;9685;54.338;18.672;2023-08-12T01:11:03;15.70;1.00
19106;DHT22;9685;54.338;18.672;2023-08-12T01:13:36;15.80;1.00
19106;DHT22;9685;54.338;18.672;2023-08-12T01:16:08;15.70;1.00
19106;DHT22;9685;54.338;18.672;2023-08-12T01:18:36;15.70;1.00
19106;DHT22;9685;54.338;18.672;2023-08-12T01:21:06;15.60;1.00
19106;DHT22;9685;54.338;18.672;2023-08-12T01:23:35;15.60;1.00
19106;DHT22;9685;54.338;18.672;2023-08-12T01:26:04;15.50;1.00
19106;DHT22;9685;54.338;18.672;2023-08-12T01:28:31;15.50;1.00
19106;DHT22;9685;54.338;18.672;2023-08-12T01:31:05;15.50;1.00
19106;DHT22;9685;54.338;18.672;2023-08-12T01:33:42;15.50;1.00
19106;DHT22;9685;54.338;18.672;2023-08-12T01:36:11;15.50;1.00
19106;DHT22;9685;54.338;18.672;2023-08-12T01:38:41;15.40;1.00
19106;DHT22;9685;54.338;18.672;2023-08-12T01:41:09;15.40;1.00
19106;DHT22;9685;54.338;18.672;2023-08-12T01:43:36;15.40;1.00
19106;DHT22;9685;54.338;18.672;2023-08-12T01:46:04;15.30;1.00
19106;DHT22;9685;54.338;18.672;2023-08-12T01:48:30;15.20;1.00
19106;DHT22;9685;54.338;18.672;2023-08-12T01:50:57;15.20;1.00
19106;DHT22;9685;54.338;18.672;2023-08-12T01:53:24;15.10;1.00
19106;DHT22;9685;54.338;18.672;2023-08-12T01:55:53;15.10;1.00
19106;DHT22;9685;54.338;18.672;2023-08-12T01:58:20;15.10;1.00
19106;DHT22;9685;54.338;18.672;2023-08-12T02:00:47;15.00;1.00
19106;DHT22;9685;54.338;18.672;2023-08-12T02:03:13;15.00;1.00
19106;DHT22;9685;54.338;18.672;2023-08-12T02:05:40;15.00;1.00
19106;DHT22;9685;54.338;18.672;2023-08-12T02:08:07;14.90;1.00
19106;DHT22;9685;54.338;18.672;2023-08-12T02:10:34;14.90;1.00
19106;DHT22;9685;54.338;18.672;2023-08-12T02:13:03;14.90;1.00
19106;DHT22;9685;54.338;18.672;2023-08-12T02:15:30;14.90;1.00
19106;DHT22;9685;54.338;18.672;2023-08-12T02:17:57;14.90;1.00
19106;DHT22;9685;54.338;18.672;2023-08-12T02:20:24;14.90;1.00
19106;DHT22;9685;54.338;18.672;2023-08-12T02:22:51;14.90;1.00
19106;DHT22;9685;54.338;18.672;2023-08-12T02:25:18;14.80;1.00
19106;DHT22;9685;54.338;18.672;2023-08-12T02:27:45;14.80;1.00
19106;DHT22;9685;54.338;18.672;2023-08-12T02:30:13;14.70;1.00
19106;DHT22;9685;54.338;18.672;2023-08-12T02:32:40;14.70;1.00
19106;DHT22;9685;54.338;18.672;2023-08-12T02:35:09;14.70;1.00
19106;DHT22;9685;54.338;18.672;2023-08-12T02:37:36;14.60;1.00
19106;DHT22;9685;54.338;18.672;2023-08-12T02:40:05;14.70;1.00
19106;DHT22;9685;54.338;18.672;2023-08-12T02:42:32;14.70;1.00
19106;DHT22;9685;54.338;18.672;2023-08-12T02:44:59;14.60;1.00
19106;DHT22;9685;54.338;18.672;2023-08-12T02:47:28;14.70;1.00
19106;DHT22;9685;54.338;18.672;2023-08-12T02:49:55;14.70;1.00
19106;DHT22;9685;54.338;18.672;2023-08-12T02:52:21;14.70;1.00
19106;DHT22;9685;54.338;18.672;2023-08-12T02:54:48;14.70;1.00
19106;DHT22;9685;54.338;18.672;2023-08-12T02:57:16;14.60;1.00
19106;DHT22;9685;54.338;18.672;2023-08-12T02:59:42;14.50;1.00
19106;DHT22;9685;54.338;18.672;2023-08-12T03:02:09;14.50;1.00
19106;DHT22;9685;54.338;18.672;2023-08-12T03:04:38;14.40;1.00
19106;DHT22;9685;54.338;18.672;2023-08-12T03:07:05;14.50;1.00
19106;DHT22;9685;54.338;18.672;2023-08-12T03:09:32;14.50;1.00
19106;DHT22;9685;54.338;18.672;2023-08-12T03:11:58;14.50;1.00
19106;DHT22;9685;54.338;18.672;2023-08-12T03:14:28;14.50;1.00
19106;DHT22;9685;54.338;18.672;2023-08-12T03:16:55;14.50;1.00
19106;DHT22;9685;54.338;18.672;2023-08-12T03:19:22;14.50;1.00
19106;DHT22;9685;54.338;18.672;2023-08-12T03:21:51;14.40;1.00
19106;DHT22;9685;54.338;18.672;2023-08-12T03:24:17;14.40;1.00
19106;DHT22;9685;54.338;18.672;2023-08-12T03:26:44;14.40;1.00
19106;DHT22;9685;54.338;18.672;2023-08-12T03:29:11;14.40;1.00
19106;DHT22;9685;54.338;18.672;2023-08-12T03:31:38;14.40;1.00
19106;DHT22;9685;54.338;18.672;2023-08-12T03:34:05;14.40;1.00
19106;DHT22;9685;54.338;18.672;2023-08-12T03:36:32;14.30;1.00
19106;DHT22;9685;54.338;18.672;2023-08-12T03:39:00;14.30;1.00
19106;DHT22;9685;54.338;18.672;2023-08-12T03:41:27;14.30;1.00
19106;DHT22;9685;54.338;18.672;2023-08-12T03:43:54;14.30;1.00
19106;DHT22;9685;54.338;18.672;2023-08-12T03:46:21;14.30;1.00
19106;DHT22;9685;54.338;18.672;2023-08-12T03:48:48;14.40;1.00
19106;DHT22;9685;54.338;18.672;2023-08-12T03:51:15;14.40;1.00
19106;DHT22;9685;54.338;18.672;2023-08-12T03:53:42;14.40;1.00
19106;DHT22;9685;54.338;18.672;2023-08-12T03:56:10;14.50;1.00
19106;DHT22;9685;54.338;18.672;2023-08-12T03:58:42;14.50;1.00
19106;DHT22;9685;54.338;18.672;2023-08-12T04:01:09;14.50;1.00
19106;DHT22;9685;54.338;18.672;2023-08-12T04:03:36;14.50;1.00
19106;DHT22;9685;54.338;18.672;2023-08-12T04:06:02;14.50;1.00
19106;DHT22;9685;54.338;18.672;2023-08-12T04:08:29;14.50;1.00
19106;DHT22;9685;54.338;18.672;2023-08-12T04:10:57;14.50;1.00
19106;DHT22;9685;54.338;18.672;2023-08-12T04:13:26;14.50;1.00
19106;DHT22;9685;54.338;18.672;2023-08-12T04:15:53;14.50;1.00
19106;DHT22;9685;54.338;18.672;2023-08-12T04:18:20;14.50;1.00
19106;DHT22;9685;54.338;18.672;2023-08-12T04:20:48;14.50;1.00
19106;DHT22;9685;54.338;18.672;2023-08-12T04:23:16;14.50;1.00
19106;DHT22;9685;54.338;18.672;2023-08-12T04:25:43;14.50;1.00
19106;DHT22;9685;54.338;18.672;2023-08-12T04:28:11;14.50;1.00
19106;DHT22;9685;54.338;18.672;2023-08-12T04:30:42;14.60;1.00
19106;DHT22;9685;54.338;18.672;2023-08-12T04:33:09;14.60;1.00
19106;DHT22;9685;54.338;18.672;2023-08-12T04:35:36;14.60;1.00
19106;DHT22;9685;54.338;18.672;2023-08-12T04:38:03;14.70;1.00
19106;DHT22;9685;54.338;18.672;2023-08-12T04:40:31;14.70;1.00
19106;DHT22;9685;54.338;18.672;2023-08-12T04:42:58;14.80;1.00
19106;DHT22;9685;54.338;18.672;2023-08-12T04:45:25;14.90;1.00
19106;DHT22;9685;54.338;18.672;2023-08-12T04:47:55;14.90;1.00
19106;DHT22;9685;54.338;18.672;2023-08-12T04:50:22;15.00;1.00
19106;DHT22;9685;54.338;18.672;2023-08-12T04:52:49;15.10;1.00
19106;DHT22;9685;54.338;18.672;2023-08-12T04:55:16;15.20;1.00
19106;DHT22;9685;54.338;18.672;2023-08-12T04:57:44;15.30;1.00
19106;DHT22;9685;54.338;18.672;2023-08-12T05:00:11;15.40;1.00
19106;DHT22;9685;54.338;18.672;2023-08-12T05:02:39;15.50;1.00
19106;DHT22;9685;54.338;18.672;2023-08-12T05:05:08;15.60;1.00
19106;DHT22;9685;54.338;18.672;2023-08-12T05:07:35;15.70;1.00
19106;DHT22;9685;54.338;18.672;2023-08-12T05:10:02;15.80;1.00
19106;DHT22;9685;54.338;18.672;2023-08-12T05:12:29;15.90;1.00
19106;DHT22;9685;54.338;18.672;2023-08-12T05:14:56;16.10;1.00
19106;DHT22;9685;54.338;18.672;2023-08-12T05:17:23;16.20;1.00
19106;DHT22;9685;54.338;18.672;2023-08-12T05:19:50;16.30;1.00
19106;DHT22;9685;54.338;18.672;2023-08-12T05:22:19;16.40;1.00
19106;DHT22;9685;54.338;18.672;2023-08-12T05:24:46;16.50;1.00
19106;DHT22;9685;54.338;18.672;2023-08-12T05:27:13;16.60;1.00
19106;DHT22;9685;54.338;18.672;2023-08-12T05:29:40;16.70;1.00
19106;DHT22;9685;54.338;18.672;2023-08-12T05:32:07;16.80;1.00
19106;DHT22;9685;54.338;18.672;2023-08-12T05:34:34;16.80;99.90
19106;DHT22;9685;54.338;18.672;2023-08-12T05:37:01;16.90;99.90
19106;DHT22;9685;54.338;18.672;2023-08-12T05:39:29;17.00;99.90
19106;DHT22;9685;54.338;18.672;2023-08-12T05:41:56;17.10;99.90
19106;DHT22;9685;54.338;18.672;2023-08-12T05:44:23;17.10;99.90
19106;DHT22;9685;54.338;18.672;2023-08-12T05:46:50;17.20;99.90
19106;DHT22;9685;54.338;18.672;2023-08-12T05:49:17;17.30;99.90
19106;DHT22;9685;54.338;18.672;2023-08-12T05:51:44;17.40;99.90
19106;DHT22;9685;54.338;18.672;2023-08-12T05:54:11;17.50;99.90
19106;DHT22;9685;54.338;18.672;2023-08-12T05:56:39;17.60;99.90
19106;DHT22;9685;54.338;18.672;2023-08-12T05:59:06;17.60;99.90
19106;DHT22;9685;54.338;18.672;2023-08-12T06:01:33;17.70;99.90
19106;DHT22;9685;54.338;18.672;2023-08-12T06:04:00;17.80;99.90
19106;DHT22;9685;54.338;18.672;2023-08-12T06:06:27;17.80;99.90
19106;DHT22;9685;54.338;18.672;2023-08-12T06:08:54;17.90;99.90
19106;DHT22;9685;54.338;18.672;2023-08-12T06:11:20;17.90;99.90
19106;DHT22;9685;54.338;18.672;2023-08-12T06:13:49;18.00;99.90
19106;DHT22;9685;54.338;18.672;2023-08-12T06:16:16;18.20;99.90
19106;DHT22;9685;54.338;18.672;2023-08-12T06:18:43;18.30;99.90
19106;DHT22;9685;54.338;18.672;2023-08-12T06:21:09;18.40;99.90
19106;DHT22;9685;54.338;18.672;2023-08-12T06:23:36;18.60;99.90
19106;DHT22;9685;54.338;18.672;2023-08-12T06:26:03;18.70;99.90
19106;DHT22;9685;54.338;18.672;2023-08-12T06:28:30;18.90;99.90
19106;DHT22;9685;54.338;18.672;2023-08-12T06:30:58;19.10;99.90
19106;DHT22;9685;54.338;18.672;2023-08-12T06:33:26;19.20;99.90
19106;DHT22;9685;54.338;18.672;2023-08-12T06:35:53;19.40;99.90
19106;DHT22;9685;54.338;18.672;2023-08-12T06:38:20;19.60;99.90
19106;DHT22;9685;54.338;18.672;2023-08-12T06:40:47;19.80;99.90
19106;DHT22;9685;54.338;18.672;2023-08-12T06:43:14;20.00;99.90
19106;DHT22;9685;54.338;18.672;2023-08-12T06:45:41;20.20;99.90
19106;DHT22;9685;54.338;18.672;2023-08-12T06:48:09;20.40;99.90
19106;DHT22;9685;54.338;18.672;2023-08-12T06:50:36;20.60;99.90
19106;DHT22;9685;54.338;18.672;2023-08-12T06:53:03;20.70;99.90
19106;DHT22;9685;54.338;18.672;2023-08-12T06:55:30;20.80;99.90
19106;DHT22;9685;54.338;18.672;2023-08-12T06:57:57;21.00;99.90
19106;DHT22;9685;54.338;18.672;2023-08-12T07:00:24;21.10;99.90
19106;DHT22;9685;54.338;18.672;2023-08-12T07:02:51;21.20;99.90
19106;DHT22;9685;54.338;18.672;2023-08-12T07:05:19;21.20;99.90
19106;DHT22;9685;54.338;18.672;2023-08-12T07:07:46;21.40;99.90
19106;DHT22;9685;54.338;18.672;2023-08-12T07:10:13;21.50;99.90
19106;DHT22;9685;54.338;18.672;2023-08-12T07:12:40;21.60;99.90
19106;DHT22;9685;54.338;18.672;2023-08-12T07:15:08;21.80;99.90
19106;DHT22;9685;54.338;18.672;2023-08-12T07:17:36;21.90;99.90
19106;DHT22;9685;54.338;18.672;2023-08-12T07:20:04;22.10;99.90
19106;DHT22;9685;54.338;18.672;2023-08-12T07:22:32;22.30;98.80
19106;DHT22;9685;54.338;18.672;2023-08-12T07:24:59;22.50;95.20
19106;DHT22;9685;54.338;18.672;2023-08-12T07:27:26;22.50;93.00
19106;DHT22;9685;54.338;18.672;2023-08-12T07:29:53;22.60;93.10
19106;DHT22;9685;54.338;18.672;2023-08-12T07:32:20;22.80;91.60
19106;DHT22;9685;54.338;18.672;2023-08-12T07:34:47;22.90;90.00
19106;DHT22;9685;54.338;18.672;2023-08-12T07:37:14;23.10;90.10
19106;DHT22;9685;54.338;18.672;2023-08-12T07:39:42;23.40;90.00
19106;DHT22;9685;54.338;18.672;2023-08-12T07:42:09;23.60;86.30
19106;DHT22;9685;54.338;18.672;2023-08-12T07:44:36;23.70;79.60
19106;DHT22;9685;54.338;18.672;2023-08-12T07:47:03;23.90;76.70
19106;DHT22;9685;54.338;18.672;2023-08-12T07:49:30;24.00;76.60
19106;DHT22;9685;54.338;18.672;2023-08-12T07:51:57;24.00;72.40
19106;DHT22;9685;54.338;18.672;2023-08-12T07:54:24;24.00;79.60
19106;DHT22;9685;54.338;18.672;2023-08-12T07:56:52;24.10;72.80
19106;DHT22;9685;54.338;18.672;2023-08-12T07:59:20;24.30;71.50
19106;DHT22;9685;54.338;18.672;2023-08-12T08:01:47;24.30;70.70
19106;DHT22;9685;54.338;18.672;2023-08-12T08:04:14;24.40;69.30
19106;DHT22;9685;54.338;18.672;2023-08-12T08:06:40;24.50;68.20
19106;DHT22;9685;54.338;18.672;2023-08-12T08:09:07;24.60;91.80
19106;DHT22;9685;54.338;18.672;2023-08-12T08:11:35;24.70;65.50
19106;DHT22;9685;54.338;18.672;2023-08-12T08:14:03;24.90;66.40
19106;DHT22;9685;54.338;18.672;2023-08-12T08:16:30;24.90;64.30
19106;DHT22;9685;54.338;18.672;2023-08-12T08:18:57;24.90;62.80
19106;DHT22;9685;54.338;18.672;2023-08-12T08:21:24;24.90;61.40
19106;DHT22;9685;54.338;18.672;2023-08-12T08:23:52;24.90;61.00
19106;DHT22;9685;54.338;18.672;2023-08-12T08:26:19;25.00;62.50
19106;DHT22;9685;54.338;18.672;2023-08-12T08:28:46;25.00;62.50
19106;DHT22;9685;54.338;18.672;2023-08-12T08:31:14;25.10;61.40
19106;DHT22;9685;54.338;18.672;2023-08-12T08:33:42;25.30;61.20
19106;DHT22;9685;54.338;18.672;2023-08-12T08:36:08;25.30;60.90
19106;DHT22;9685;54.338;18.672;2023-08-12T08:38:36;25.30;60.30
19106;DHT22;9685;54.338;18.672;2023-08-12T08:41:05;25.50;60.50
19106;DHT22;9685;54.338;18.672;2023-08-12T08:43:35;25.60;61.00
19106;DHT22;9685;54.338;18.672;2023-08-12T08:46:03;25.70;60.90
19106;DHT22;9685;54.338;18.672;2023-08-12T08:48:33;25.80;60.50
19106;DHT22;9685;54.338;18.672;2023-08-12T08:51:01;25.90;59.20
19106;DHT22;9685;54.338;18.672;2023-08-12T08:53:28;25.90;59.90
19106;DHT22;9685;54.338;18.672;2023-08-12T08:55:55;26.00;60.00
19106;DHT22;9685;54.338;18.672;2023-08-12T08:58:23;26.00;59.50
19106;DHT22;9685;54.338;18.672;2023-08-12T09:00:50;26.00;58.20
19106;DHT22;9685;54.338;18.672;2023-08-12T09:03:17;26.00;57.40
19106;DHT22;9685;54.338;18.672;2023-08-12T09:05:46;26.00;59.00
19106;DHT22;9685;54.338;18.672;2023-08-12T09:08:14;26.10;56.90
19106;DHT22;9685;54.338;18.672;2023-08-12T09:10:42;26.20;56.80
19106;DHT22;9685;54.338;18.672;2023-08-12T09:13:09;26.20;57.40
19106;DHT22;9685;54.338;18.672;2023-08-12T09:15:36;26.30;56.60
19106;DHT22;9685;54.338;18.672;2023-08-12T09:18:05;26.30;55.50
19106;DHT22;9685;54.338;18.672;2023-08-12T09:20:32;26.30;55.60
19106;DHT22;9685;54.338;18.672;2023-08-12T09:23:01;26.40;55.50
19106;DHT22;9685;54.338;18.672;2023-08-12T09:25:28;26.40;55.40
19106;DHT22;9685;54.338;18.672;2023-08-12T09:27:55;26.40;55.70
19106;DHT22;9685;54.338;18.672;2023-08-12T09:30:28;26.60;56.50
19106;DHT22;9685;54.338;18.672;2023-08-12T09:33:00;26.70;56.50
19106;DHT22;9685;54.338;18.672;2023-08-12T09:35:33;26.80;56.60
19106;DHT22;9685;54.338;18.672;2023-08-12T09:38:03;26.70;55.90
19106;DHT22;9685;54.338;18.672;2023-08-12T09:40:31;26.70;54.50
19106;DHT22;9685;54.338;18.672;2023-08-12T09:42:58;26.50;53.00
19106;DHT22;9685;54.338;18.672;2023-08-12T09:45:26;26.60;52.50
19106;DHT22;9685;54.338;18.672;2023-08-12T09:47:54;26.60;53.90
19106;DHT22;9685;54.338;18.672;2023-08-12T09:50:21;26.70;52.30
19106;DHT22;9685;54.338;18.672;2023-08-12T09:52:49;26.80;53.70
19106;DHT22;9685;54.338;18.672;2023-08-12T09:55:20;26.90;52.60
19106;DHT22;9685;54.338;18.672;2023-08-12T09:57:49;26.90;52.50
19106;DHT22;9685;54.338;18.672;2023-08-12T10:00:18;26.90;49.50
19106;DHT22;9685;54.338;18.672;2023-08-12T10:02:47;27.00;52.80
19106;DHT22;9685;54.338;18.672;2023-08-12T10:05:18;27.10;52.70
19106;DHT22;9685;54.338;18.672;2023-08-12T10:07:46;27.20;53.50
19106;DHT22;9685;54.338;18.672;2023-08-12T10:10:14;27.20;76.00
19106;DHT22;9685;54.338;18.672;2023-08-12T10:12:42;27.20;52.50
19106;DHT22;9685;54.338;18.672;2023-08-12T10:15:10;27.30;51.80
19106;DHT22;9685;54.338;18.672;2023-08-12T10:17:38;27.50;52.00
19106;DHT22;9685;54.338;18.672;2023-08-12T10:20:08;27.50;52.50
19106;DHT22;9685;54.338;18.672;2023-08-12T10:22:35;27.60;52.90
19106;DHT22;9685;54.338;18.672;2023-08-12T10:25:03;27.80;52.60
19106;DHT22;9685;54.338;18.672;2023-08-12T10:27:30;28.00;52.90
19106;DHT22;9685;54.338;18.672;2023-08-12T10:29:59;28.20;51.90
19106;DHT22;9685;54.338;18.672;2023-08-12T10:32:30;28.30;54.00
19106;DHT22;9685;54.338;18.672;2023-08-12T10:34:57;28.60;52.90
19106;DHT22;9685;54.338;18.672;2023-08-12T10:37:25;28.50;52.50
19106;DHT22;9685;54.338;18.672;2023-08-12T10:39:52;28.60;52.50
19106;DHT22;9685;54.338;18.672;2023-08-12T10:42:41;28.70;47.50
19106;DHT22;9685;54.338;18.672;2023-08-12T10:45:11;29.10;54.70
19106;DHT22;9685;54.338;18.672;2023-08-12T10:47:39;29.40;54.40
19106;DHT22;9685;54.338;18.672;2023-08-12T10:50:15;29.50;54.30
19106;DHT22;9685;54.338;18.672;2023-08-12T10:52:43;29.70;55.10
19106;DHT22;9685;54.338;18.672;2023-08-12T10:55:18;29.90;54.00
19106;DHT22;9685;54.338;18.672;2023-08-12T10:57:45;30.00;54.90
19106;DHT22;9685;54.338;18.672;2023-08-12T11:00:16;30.00;53.00
19106;DHT22;9685;54.338;18.672;2023-08-12T11:02:49;30.10;53.70
19106;DHT22;9685;54.338;18.672;2023-08-12T11:05:16;30.10;53.30
19106;DHT22;9685;54.338;18.672;2023-08-12T11:07:45;30.20;54.30
19106;DHT22;9685;54.338;18.672;2023-08-12T11:10:14;30.40;54.00
19106;DHT22;9685;54.338;18.672;2023-08-12T11:12:49;30.40;53.30
19106;DHT22;9685;54.338;18.672;2023-08-12T11:15:30;30.50;52.90
19106;DHT22;9685;54.338;18.672;2023-08-12T11:17:58;30.50;52.80
19106;DHT22;9685;54.338;18.672;2023-08-12T11:20:27;30.30;50.90
19106;DHT22;9685;54.338;18.672;2023-08-12T11:22:55;30.40;50.40
19106;DHT22;9685;54.338;18.672;2023-08-12T11:25:24;30.40;50.60
19106;DHT22;9685;54.338;18.672;2023-08-12T11:27:51;30.60;50.90
19106;DHT22;9685;54.338;18.672;2023-08-12T11:30:21;30.70;50.90
19106;DHT22;9685;54.338;18.672;2023-08-12T11:32:49;30.90;51.80
19106;DHT22;9685;54.338;18.672;2023-08-12T11:35:17;31.20;51.90
19106;DHT22;9685;54.338;18.672;2023-08-12T11:37:46;31.40;53.00
19106;DHT22;9685;54.338;18.672;2023-08-12T11:40:15;31.50;51.40
19106;DHT22;9685;54.338;18.672;2023-08-12T11:42:44;31.70;52.30
19106;DHT22;9685;54.338;18.672;2023-08-12T11:45:12;31.90;51.70
19106;DHT22;9685;54.338;18.672;2023-08-12T11:47:41;32.10;51.60
19106;DHT22;9685;54.338;18.672;2023-08-12T11:50:10;32.50;52.40
19106;DHT22;9685;54.338;18.672;2023-08-12T11:52:38;32.30;52.80
19106;DHT22;9685;54.338;18.672;2023-08-12T11:55:06;32.30;51.40
19106;DHT22;9685;54.338;18.672;2023-08-12T11:57:33;32.20;49.90
19106;DHT22;9685;54.338;18.672;2023-08-12T12:00:02;32.00;49.30
19106;DHT22;9685;54.338;18.672;2023-08-12T12:02:30;32.20;49.30
19106;DHT22;9685;54.338;18.672;2023-08-12T12:04:59;32.70;50.30
19106;DHT22;9685;54.338;18.672;2023-08-12T12:07:26;33.10;51.20
19106;DHT22;9685;54.338;18.672;2023-08-12T12:09:54;33.40;50.70
19106;DHT22;9685;54.338;18.672;2023-08-12T12:12:22;33.20;49.00
19106;DHT22;9685;54.338;18.672;2023-08-12T12:14:51;33.00;49.50
19106;DHT22;9685;54.338;18.672;2023-08-12T12:17:20;33.00;47.90
19106;DHT22;9685;54.338;18.672;2023-08-12T12:19:51;33.10;47.30
19106;DHT22;9685;54.338;18.672;2023-08-12T12:22:19;33.20;48.30
19106;DHT22;9685;54.338;18.672;2023-08-12T12:24:47;33.30;47.60
19106;DHT22;9685;54.338;18.672;2023-08-12T12:27:14;33.30;46.30
19106;DHT22;9685;54.338;18.672;2023-08-12T12:29:41;33.10;45.40
19106;DHT22;9685;54.338;18.672;2023-08-12T12:32:08;33.10;45.40
19106;DHT22;9685;54.338;18.672;2023-08-12T12:34:35;33.00;44.10
19106;DHT22;9685;54.338;18.672;2023-08-12T12:37:02;32.90;43.40
19106;DHT22;9685;54.338;18.672;2023-08-12T12:39:30;32.80;43.00
19106;DHT22;9685;54.338;18.672;2023-08-12T12:41:57;32.70;42.20
19106;DHT22;9685;54.338;18.672;2023-08-12T12:44:25;32.80;42.60
19106;DHT22;9685;54.338;18.672;2023-08-12T12:46:52;32.80;42.20
19106;DHT22;9685;54.338;18.672;2023-08-12T12:49:20;32.60;40.90
19106;DHT22;9685;54.338;18.672;2023-08-12T12:51:47;32.70;41.00
19106;DHT22;9685;54.338;18.672;2023-08-12T12:54:14;33.00;42.00
19106;DHT22;9685;54.338;18.672;2023-08-12T12:56:42;33.50;43.70
19106;DHT22;9685;54.338;18.672;2023-08-12T12:59:09;33.70;42.50
19106;DHT22;9685;54.338;18.672;2023-08-12T13:01:36;33.80;42.70
19106;DHT22;9685;54.338;18.672;2023-08-12T13:04:04;33.90;42.20
19106;DHT22;9685;54.338;18.672;2023-08-12T13:06:31;34.20;42.50
19106;DHT22;9685;54.338;18.672;2023-08-12T13:08:58;34.20;41.10
19106;DHT22;9685;54.338;18.672;2023-08-12T13:11:25;34.20;41.60
19106;DHT22;9685;54.338;18.672;2023-08-12T13:13:54;34.00;40.60
19106;DHT22;9685;54.338;18.672;2023-08-12T13:16:21;34.20;40.40
19106;DHT22;9685;54.338;18.672;2023-08-12T13:18:48;34.60;42.10
19106;DHT22;9685;54.338;18.672;2023-08-12T13:21:15;35.10;42.10
19106;DHT22;9685;54.338;18.672;2023-08-12T13:23:42;35.80;43.60
19106;DHT22;9685;54.338;18.672;2023-08-12T13:26:09;36.40;45.10
19106;DHT22;9685;54.338;18.672;2023-08-12T13:28:36;36.90;46.40
19106;DHT22;9685;54.338;18.672;2023-08-12T13:31:04;36.90;43.70
19106;DHT22;9685;54.338;18.672;2023-08-12T13:33:31;36.50;42.90
19106;DHT22;9685;54.338;18.672;2023-08-12T13:35:58;36.10;40.90
19106;DHT22;9685;54.338;18.672;2023-08-12T13:38:25;35.80;38.70
19106;DHT22;9685;54.338;18.672;2023-08-12T13:40:52;35.50;36.90
19106;DHT22;9685;54.338;18.672;2023-08-12T13:43:19;35.60;38.30
19106;DHT22;9685;54.338;18.672;2023-08-12T13:45:46;35.90;38.50
19106;DHT22;9685;54.338;18.672;2023-08-12T13:48:15;35.80;38.70
19106;DHT22;9685;54.338;18.672;2023-08-12T13:50:42;35.40;36.30
19106;DHT22;9685;54.338;18.672;2023-08-12T13:53:09;35.60;37.10
19106;DHT22;9685;54.338;18.672;2023-08-12T13:55:36;36.10;37.70
19106;DHT22;9685;54.338;18.672;2023-08-12T13:58:03;36.60;38.80
19106;DHT22;9685;54.338;18.672;2023-08-12T14:00:30;36.90;39.50
19106;DHT22;9685;54.338;18.672;2023-08-12T14:02:58;37.10;40.40
19106;DHT22;9685;54.338;18.672;2023-08-12T14:05:26;37.50;39.90
19106;DHT22;9685;54.338;18.672;2023-08-12T14:07:53;37.80;40.30
19106;DHT22;9685;54.338;18.672;2023-08-12T14:10:20;38.10;41.10
19106;DHT22;9685;54.338;18.672;2023-08-12T14:12:47;38.60;41.50
19106;DHT22;9685;54.338;18.672;2023-08-12T14:15:14;38.80;41.40
19106;DHT22;9685;54.338;18.672;2023-08-12T14:17:41;38.80;40.50
19106;DHT22;9685;54.338;18.672;2023-08-12T14:20:08;38.30;39.40
19106;DHT22;9685;54.338;18.672;2023-08-12T14:22:37;38.20;40.10
19106;DHT22;9685;54.338;18.672;2023-08-12T14:25:05;38.20;38.50
19106;DHT22;9685;54.338;18.672;2023-08-12T14:27:33;38.10;37.80
19106;DHT22;9685;54.338;18.672;2023-08-12T14:30:00;37.90;37.30
19106;DHT22;9685;54.338;18.672;2023-08-12T14:32:26;37.50;35.00
19106;DHT22;9685;54.338;18.672;2023-08-12T14:34:53;37.00;33.90
19106;DHT22;9685;54.338;18.672;2023-08-12T14:37:20;36.50;32.00
19106;DHT22;9685;54.338;18.672;2023-08-12T14:39:49;36.10;32.60
19106;DHT22;9685;54.338;18.672;2023-08-12T14:42:15;35.90;30.10
19106;DHT22;9685;54.338;18.672;2023-08-12T14:44:42;35.80;30.00
19106;DHT22;9685;54.338;18.672;2023-08-12T14:47:09;35.90;30.40
19106;DHT22;9685;54.338;18.672;2023-08-12T14:49:36;36.20;31.20
19106;DHT22;9685;54.338;18.672;2023-08-12T14:52:03;36.60;33.20
19106;DHT22;9685;54.338;18.672;2023-08-12T14:54:30;36.70;31.40
19106;DHT22;9685;54.338;18.672;2023-08-12T14:56:59;36.60;32.30
19106;DHT22;9685;54.338;18.672;2023-08-12T14:59:26;36.60;31.30
19106;DHT22;9685;54.338;18.672;2023-08-12T15:01:54;36.60;30.30
19106;DHT22;9685;54.338;18.672;2023-08-12T15:04:22;36.40;31.70
19106;DHT22;9685;54.338;18.672;2023-08-12T15:06:49;36.00;29.80
19106;DHT22;9685;54.338;18.672;2023-08-12T15:09:17;35.80;28.70
19106;DHT22;9685;54.338;18.672;2023-08-12T15:11:44;35.30;26.70
19106;DHT22;9685;54.338;18.672;2023-08-12T15:14:12;35.00;28.10
19106;DHT22;9685;54.338;18.672;2023-08-12T15:16:39;34.80;26.50
19106;DHT22;9685;54.338;18.672;2023-08-12T15:19:06;34.40;26.40
19106;DHT22;9685;54.338;18.672;2023-08-12T15:21:33;34.00;25.10
19106;DHT22;9685;54.338;18.672;2023-08-12T15:24:00;33.70;24.40
19106;DHT22;9685;54.338;18.672;2023-08-12T15:26:27;33.30;23.40
19106;DHT22;9685;54.338;18.672;2023-08-12T15:28:54;33.10;22.80
19106;DHT22;9685;54.338;18.672;2023-08-12T15:31:22;32.80;22.30
19106;DHT22;9685;54.338;18.672;2023-08-12T15:33:49;32.40;20.90
19106;DHT22;9685;54.338;18.672;2023-08-12T15:36:16;32.20;20.70
19106;DHT22;9685;54.338;18.672;2023-08-12T15:38:45;32.10;21.50